sensor_id;sensor_type;location;lat;lon;timestamp;temperature;humidity
38380;DHT22;38377;47.418;18.882;2022-11-28T00:01:47;4.50;99.90
38380;DHT22;38377;47.418;18.882;2022-11-28T00:04:14;4.60;99.90
38380;DHT22;38377;47.418;18.882;2022-11-28T00:06:43;4.60;99.90
38380;DHT22;38377;47.418;18.882;2022-11-28T00:09:12;4.60;99.90
38380;DHT22;38377;47.418;18.882;2022-11-28T00:11:40;4.60;99.90
38380;DHT22;38377;47.418;18.882;2022-11-28T00:14:06;4.60;99.90
38380;DHT22;38377;47.418;18.882;2022-11-28T00:16:32;4.60;99.90
38380;DHT22;38377;47.418;18.882;2022-11-28T00:18:59;4.60;99.90
38380;DHT22;38377;47.418;18.882;2022-11-28T00:21:25;4.60;99.90
38380;DHT22;38377;47.418;18.882;2022-11-28T00:23:52;4.60;99.90
38380;DHT22;38377;47.418;18.882;2022-11-28T00:26:30;4.70;99.90
38380;DHT22;38377;47.418;18.882;2022-11-28T00:28:57;4.70;99.90
38380;DHT22;38377;47.418;18.882;2022-11-28T00:31:32;4.70;99.90
38380;DHT22;38377;47.418;18.882;2022-11-28T00:33:58;4.70;99.90
38380;DHT22;38377;47.418;18.882;2022-11-28T00:36:27;4.70;99.90
38380;DHT22;38377;47.418;18.882;2022-11-28T00:38:53;4.70;99.90
38380;DHT22;38377;47.418;18.882;2022-11-28T00:41:21;4.70;99.90
38380;DHT22;38377;47.418;18.882;2022-11-28T00:43:49;4.70;99.90
38380;DHT22;38377;47.418;18.882;2022-11-28T00:46:16;4.70;99.90
38380;DHT22;38377;47.418;18.882;2022-11-28T00:48:42;4.70;99.90
38380;DHT22;38377;47.418;18.882;2022-11-28T00:51:19;4.70;99.90
38380;DHT22;38377;47.418;18.882;2022-11-28T00:53:47;4.70;99.90
38380;DHT22;38377;47.418;18.882;2022-11-28T00:56:16;4.70;99.90
38380;DHT22;38377;47.418;18.882;2022-11-28T00:58:42;4.60;99.90
38380;DHT22;38377;47.418;18.882;2022-11-28T01:03:52;4.70;99.90
38380;DHT22;38377;47.418;18.882;2022-11-28T01:08:52;4.70;99.90
38380;DHT22;38377;47.418;18.882;2022-11-28T01:11:18;4.70;99.90
38380;DHT22;38377;47.418;18.882;2022-11-28T01:13:44;4.70;99.90
38380;DHT22;38377;47.418;18.882;2022-11-28T01:16:10;4.70;99.90
38380;DHT22;38377;47.418;18.882;2022-11-28T01:18:37;4.70;99.90
38380;DHT22;38377;47.418;18.882;2022-11-28T01:21:03;4.70;99.90
38380;DHT22;38377;47.418;18.882;2022-11-28T01:23:29;4.70;99.90
38380;DHT22;38377;47.418;18.882;2022-11-28T01:25:55;4.70;99.90
38380;DHT22;38377;47.418;18.882;2022-11-28T01:28:21;4.70;99.90
38380;DHT22;38377;47.418;18.882;2022-11-28T01:30:46;4.70;99.90
38380;DHT22;38377;47.418;18.882;2022-11-28T01:33:12;4.70;99.90
38380;DHT22;38377;47.418;18.882;2022-11-28T01:35:38;4.70;99.90
38380;DHT22;38377;47.418;18.882;2022-11-28T01:38:03;4.70;99.90
38380;DHT22;38377;47.418;18.882;2022-11-28T01:40:29;4.70;99.90
38380;DHT22;38377;47.418;18.882;2022-11-28T01:42:55;4.60;99.90
38380;DHT22;38377;47.418;18.882;2022-11-28T01:45:27;4.60;99.90
38380;DHT22;38377;47.418;18.882;2022-11-28T01:47:55;4.60;99.90
38380;DHT22;38377;47.418;18.882;2022-11-28T01:50:23;4.60;99.90
38380;DHT22;38377;47.418;18.882;2022-11-28T01:52:53;4.60;99.90
38380;DHT22;38377;47.418;18.882;2022-11-28T01:55:23;4.60;99.90
38380;DHT22;38377;47.418;18.882;2022-11-28T01:57:50;4.50;99.90
38380;DHT22;38377;47.418;18.882;2022-11-28T02:00:18;4.50;99.90
38380;DHT22;38377;47.418;18.882;2022-11-28T02:05:10;4.30;99.90
38380;DHT22;38377;47.418;18.882;2022-11-28T02:07:36;4.30;99.90
38380;DHT22;38377;47.418;18.882;2022-11-28T02:10:05;4.20;99.90
38380;DHT22;38377;47.418;18.882;2022-11-28T02:23:50;3.90;99.90
38380;DHT22;38377;47.418;18.882;2022-11-28T02:35:15;3.70;99.90
38380;DHT22;38377;47.418;18.882;2022-11-28T02:41:21;3.70;99.90
38380;DHT22;38377;47.418;18.882;2022-11-28T02:43:54;3.60;99.90
38380;DHT22;38377;47.418;18.882;2022-11-28T02:49:29;3.50;99.90
38380;DHT22;38377;47.418;18.882;2022-11-28T02:52:11;3.50;99.90
38380;DHT22;38377;47.418;18.882;2022-11-28T02:54:38;3.60;99.90
38380;DHT22;38377;47.418;18.882;2022-11-28T02:57:05;3.60;99.90
38380;DHT22;38377;47.418;18.882;2022-11-28T03:02:04;3.70;99.90
38380;DHT22;38377;47.418;18.882;2022-11-28T03:04:36;3.70;99.90
38380;DHT22;38377;47.418;18.882;2022-11-28T03:13:01;3.80;99.90
38380;DHT22;38377;47.418;18.882;2022-11-28T03:15:41;3.90;99.90
38380;DHT22;38377;47.418;18.882;2022-11-28T03:18:13;3.90;99.90
38380;DHT22;38377;47.418;18.882;2022-11-28T03:20:48;3.90;99.90
38380;DHT22;38377;47.418;18.882;2022-11-28T03:25:56;4.00;99.90
38380;DHT22;38377;47.418;18.882;2022-11-28T03:28:44;4.00;99.90
38380;DHT22;38377;47.418;18.882;2022-11-28T03:31:30;4.00;99.90
38380;DHT22;38377;47.418;18.882;2022-11-28T03:33:58;4.10;99.90
38380;DHT22;38377;47.418;18.882;2022-11-28T03:36:39;4.10;99.90
38380;DHT22;38377;47.418;18.882;2022-11-28T03:39:09;4.00;99.90
38380;DHT22;38377;47.418;18.882;2022-11-28T03:41:58;4.00;99.90
38380;DHT22;38377;47.418;18.882;2022-11-28T03:44:30;4.00;99.90
38380;DHT22;38377;47.418;18.882;2022-11-28T03:46:59;4.00;99.90
38380;DHT22;38377;47.418;18.882;2022-11-28T03:49:30;4.00;99.90
38380;DHT22;38377;47.418;18.882;2022-11-28T03:52:05;4.00;99.90
38380;DHT22;38377;47.418;18.882;2022-11-28T03:54:57;4.00;99.90
38380;DHT22;38377;47.418;18.882;2022-11-28T03:57:38;3.90;99.90
38380;DHT22;38377;47.418;18.882;2022-11-28T04:00:08;4.00;99.90
38380;DHT22;38377;47.418;18.882;2022-11-28T04:02:37;3.90;99.90
38380;DHT22;38377;47.418;18.882;2022-11-28T04:07:41;3.90;99.90
38380;DHT22;38377;47.418;18.882;2022-11-28T04:10:18;3.90;99.90
38380;DHT22;38377;47.418;18.882;2022-11-28T04:12:54;3.90;99.90
38380;DHT22;38377;47.418;18.882;2022-11-28T04:15:32;3.90;99.90
38380;DHT22;38377;47.418;18.882;2022-11-28T04:23:25;4.00;99.90
38380;DHT22;38377;47.418;18.882;2022-11-28T04:25:56;4.00;99.90
38380;DHT22;38377;47.418;18.882;2022-11-28T04:28:26;4.00;99.90
38380;DHT22;38377;47.418;18.882;2022-11-28T04:30:56;4.00;99.90
38380;DHT22;38377;47.418;18.882;2022-11-28T04:33:24;4.00;99.90
38380;DHT22;38377;47.418;18.882;2022-11-28T04:35:53;4.00;99.90
38380;DHT22;38377;47.418;18.882;2022-11-28T04:38:21;4.00;99.90
38380;DHT22;38377;47.418;18.882;2022-11-28T04:41:01;4.00;99.90
38380;DHT22;38377;47.418;18.882;2022-11-28T04:43:34;4.00;99.90
38380;DHT22;38377;47.418;18.882;2022-11-28T04:46:14;4.00;99.90
38380;DHT22;38377;47.418;18.882;2022-11-28T04:48:40;3.90;99.90
38380;DHT22;38377;47.418;18.882;2022-11-28T04:53:58;3.90;99.90
38380;DHT22;38377;47.418;18.882;2022-11-28T04:56:30;3.90;99.90
38380;DHT22;38377;47.418;18.882;2022-11-28T04:58:58;3.80;99.90
38380;DHT22;38377;47.418;18.882;2022-11-28T05:01:27;3.80;99.90
38380;DHT22;38377;47.418;18.882;2022-11-28T05:03:54;3.80;99.90
38380;DHT22;38377;47.418;18.882;2022-11-28T05:06:32;3.80;99.90
38380;DHT22;38377;47.418;18.882;2022-11-28T05:08:58;3.90;99.90
38380;DHT22;38377;47.418;18.882;2022-11-28T05:11:25;3.80;99.90
38380;DHT22;38377;47.418;18.882;2022-11-28T05:13:51;3.90;99.90
38380;DHT22;38377;47.418;18.882;2022-11-28T05:16:17;3.90;99.90
38380;DHT22;38377;47.418;18.882;2022-11-28T05:18:43;3.90;99.90
38380;DHT22;38377;47.418;18.882;2022-11-28T05:21:10;3.90;99.90
38380;DHT22;38377;47.418;18.882;2022-11-28T05:23:41;3.90;99.90
38380;DHT22;38377;47.418;18.882;2022-11-28T05:26:15;3.90;99.90
38380;DHT22;38377;47.418;18.882;2022-11-28T05:28:46;3.90;99.90
38380;DHT22;38377;47.418;18.882;2022-11-28T05:31:13;3.90;99.90
38380;DHT22;38377;47.418;18.882;2022-11-28T05:33:39;3.90;99.90
38380;DHT22;38377;47.418;18.882;2022-11-28T05:36:07;4.00;99.90
38380;DHT22;38377;47.418;18.882;2022-11-28T05:38:33;3.90;99.90
38380;DHT22;38377;47.418;18.882;2022-11-28T05:41:00;3.90;99.90
38380;DHT22;38377;47.418;18.882;2022-11-28T05:43:26;3.90;99.90
38380;DHT22;38377;47.418;18.882;2022-11-28T05:45:52;3.90;99.90
38380;DHT22;38377;47.418;18.882;2022-11-28T05:48:18;3.90;99.90
38380;DHT22;38377;47.418;18.882;2022-11-28T05:50:44;3.90;99.90
38380;DHT22;38377;47.418;18.882;2022-11-28T05:53:10;3.90;99.90
38380;DHT22;38377;47.418;18.882;2022-11-28T05:55:37;4.00;99.90
38380;DHT22;38377;47.418;18.882;2022-11-28T05:58:03;4.00;99.90
38380;DHT22;38377;47.418;18.882;2022-11-28T06:00:29;3.90;99.90
38380;DHT22;38377;47.418;18.882;2022-11-28T06:02:55;3.90;99.90
38380;DHT22;38377;47.418;18.882;2022-11-28T06:05:21;3.90;99.90
38380;DHT22;38377;47.418;18.882;2022-11-28T06:07:47;3.80;99.90
38380;DHT22;38377;47.418;18.882;2022-11-28T06:10:12;3.80;99.90
38380;DHT22;38377;47.418;18.882;2022-11-28T06:12:38;3.90;99.90
38380;DHT22;38377;47.418;18.882;2022-11-28T06:15:04;3.90;99.90
38380;DHT22;38377;47.418;18.882;2022-11-28T06:17:30;3.80;99.90
38380;DHT22;38377;47.418;18.882;2022-11-28T06:19:56;3.80;99.90
38380;DHT22;38377;47.418;18.882;2022-11-28T06:22:22;3.90;99.90
38380;DHT22;38377;47.418;18.882;2022-11-28T06:24:47;3.80;99.90
38380;DHT22;38377;47.418;18.882;2022-11-28T06:27:13;3.80;99.90
38380;DHT22;38377;47.418;18.882;2022-11-28T06:29:39;3.80;99.90
38380;DHT22;38377;47.418;18.882;2022-11-28T06:32:05;3.80;99.90
38380;DHT22;38377;47.418;18.882;2022-11-28T06:34:31;3.80;99.90
38380;DHT22;38377;47.418;18.882;2022-11-28T06:36:57;3.80;99.90
38380;DHT22;38377;47.418;18.882;2022-11-28T06:39:23;3.80;99.90
38380;DHT22;38377;47.418;18.882;2022-11-28T06:41:49;3.90;99.90
38380;DHT22;38377;47.418;18.882;2022-11-28T06:44:15;3.90;99.90
38380;DHT22;38377;47.418;18.882;2022-11-28T06:46:41;3.90;99.90
38380;DHT22;38377;47.418;18.882;2022-11-28T06:49:08;3.80;99.90
38380;DHT22;38377;47.418;18.882;2022-11-28T06:51:35;3.80;99.90
38380;DHT22;38377;47.418;18.882;2022-11-28T06:54:00;3.80;99.90
38380;DHT22;38377;47.418;18.882;2022-11-28T06:56:26;3.80;99.90
38380;DHT22;38377;47.418;18.882;2022-11-28T06:58:56;3.80;99.90
38380;DHT22;38377;47.418;18.882;2022-11-28T07:01:24;3.80;99.90
38380;DHT22;38377;47.418;18.882;2022-11-28T07:03:51;3.90;99.90
38380;DHT22;38377;47.418;18.882;2022-11-28T07:06:19;3.90;99.90
38380;DHT22;38377;47.418;18.882;2022-11-28T07:08:45;3.90;99.90
38380;DHT22;38377;47.418;18.882;2022-11-28T07:13:39;4.00;99.90
38380;DHT22;38377;47.418;18.882;2022-11-28T07:16:06;4.00;99.90
38380;DHT22;38377;47.418;18.882;2022-11-28T07:18:32;4.00;99.90
38380;DHT22;38377;47.418;18.882;2022-11-28T07:20:58;4.00;99.90
38380;DHT22;38377;47.418;18.882;2022-11-28T07:23:24;4.00;99.90
38380;DHT22;38377;47.418;18.882;2022-11-28T07:25:50;4.00;99.90
38380;DHT22;38377;47.418;18.882;2022-11-28T07:28:21;4.00;99.90
38380;DHT22;38377;47.418;18.882;2022-11-28T07:30:47;4.00;99.90
38380;DHT22;38377;47.418;18.882;2022-11-28T07:33:12;4.00;99.90
38380;DHT22;38377;47.418;18.882;2022-11-28T07:35:38;3.90;99.90
38380;DHT22;38377;47.418;18.882;2022-11-28T07:38:04;4.00;99.90
38380;DHT22;38377;47.418;18.882;2022-11-28T07:40:29;4.00;99.90
38380;DHT22;38377;47.418;18.882;2022-11-28T07:42:55;4.00;99.90
38380;DHT22;38377;47.418;18.882;2022-11-28T07:45:22;4.00;99.90
38380;DHT22;38377;47.418;18.882;2022-11-28T07:47:47;4.00;99.90
38380;DHT22;38377;47.418;18.882;2022-11-28T07:50:13;3.90;99.90
38380;DHT22;38377;47.418;18.882;2022-11-28T07:52:39;3.90;99.90
38380;DHT22;38377;47.418;18.882;2022-11-28T07:55:05;3.90;99.90
38380;DHT22;38377;47.418;18.882;2022-11-28T07:57:31;4.00;99.90
38380;DHT22;38377;47.418;18.882;2022-11-28T07:59:57;3.90;99.90
38380;DHT22;38377;47.418;18.882;2022-11-28T08:02:22;3.90;99.90
38380;DHT22;38377;47.418;18.882;2022-11-28T08:04:48;3.90;99.90
38380;DHT22;38377;47.418;18.882;2022-11-28T08:07:14;3.80;99.90
38380;DHT22;38377;47.418;18.882;2022-11-28T08:09:39;3.90;99.90
38380;DHT22;38377;47.418;18.882;2022-11-28T08:12:05;3.90;99.90
38380;DHT22;38377;47.418;18.882;2022-11-28T08:14:31;3.90;99.90
38380;DHT22;38377;47.418;18.882;2022-11-28T08:16:57;3.80;99.90
38380;DHT22;38377;47.418;18.882;2022-11-28T08:19:22;3.90;99.90
38380;DHT22;38377;47.418;18.882;2022-11-28T08:21:48;3.80;99.90
38380;DHT22;38377;47.418;18.882;2022-11-28T08:24:14;3.80;99.90
38380;DHT22;38377;47.418;18.882;2022-11-28T08:26:39;3.80;99.90
38380;DHT22;38377;47.418;18.882;2022-11-28T08:29:05;3.80;99.90
38380;DHT22;38377;47.418;18.882;2022-11-28T08:31:33;3.70;99.90
38380;DHT22;38377;47.418;18.882;2022-11-28T08:34:01;3.70;99.90
38380;DHT22;38377;47.418;18.882;2022-11-28T08:36:27;3.70;99.90
38380;DHT22;38377;47.418;18.882;2022-11-28T08:38:53;3.70;99.90
38380;DHT22;38377;47.418;18.882;2022-11-28T08:41:20;3.70;99.90
38380;DHT22;38377;47.418;18.882;2022-11-28T08:43:47;3.60;99.90
38380;DHT22;38377;47.418;18.882;2022-11-28T08:46:15;3.70;99.90
38380;DHT22;38377;47.418;18.882;2022-11-28T08:48:41;3.70;99.90
38380;DHT22;38377;47.418;18.882;2022-11-28T08:51:10;3.70;99.90
38380;DHT22;38377;47.418;18.882;2022-11-28T08:53:38;3.70;99.90
38380;DHT22;38377;47.418;18.882;2022-11-28T08:56:07;3.70;99.90
38380;DHT22;38377;47.418;18.882;2022-11-28T08:58:33;3.70;99.90
38380;DHT22;38377;47.418;18.882;2022-11-28T09:00:59;3.70;99.90
38380;DHT22;38377;47.418;18.882;2022-11-28T09:03:24;3.80;99.90
38380;DHT22;38377;47.418;18.882;2022-11-28T09:05:50;3.80;99.90
38380;DHT22;38377;47.418;18.882;2022-11-28T09:08:17;3.80;99.90
38380;DHT22;38377;47.418;18.882;2022-11-28T09:10:44;3.80;99.90
38380;DHT22;38377;47.418;18.882;2022-11-28T09:13:11;3.80;99.90
38380;DHT22;38377;47.418;18.882;2022-11-28T09:15:41;3.90;99.90
38380;DHT22;38377;47.418;18.882;2022-11-28T09:18:07;3.90;99.90
38380;DHT22;38377;47.418;18.882;2022-11-28T09:20:33;3.90;99.90
38380;DHT22;38377;47.418;18.882;2022-11-28T09:22:59;3.90;99.90
38380;DHT22;38377;47.418;18.882;2022-11-28T09:25:25;3.90;99.90
38380;DHT22;38377;47.418;18.882;2022-11-28T09:27:51;3.90;99.90
38380;DHT22;38377;47.418;18.882;2022-11-28T09:30:17;4.00;99.90
38380;DHT22;38377;47.418;18.882;2022-11-28T09:32:47;4.00;99.90
38380;DHT22;38377;47.418;18.882;2022-11-28T09:35:14;4.00;99.90
38380;DHT22;38377;47.418;18.882;2022-11-28T09:37:40;4.10;99.90
38380;DHT22;38377;47.418;18.882;2022-11-28T09:40:09;4.10;99.90
38380;DHT22;38377;47.418;18.882;2022-11-28T09:42:40;4.20;99.90
38380;DHT22;38377;47.418;18.882;2022-11-28T09:47:42;4.20;99.90
38380;DHT22;38377;47.418;18.882;2022-11-28T09:50:18;4.10;99.90
38380;DHT22;38377;47.418;18.882;2022-11-28T09:55:41;4.10;99.90
38380;DHT22;38377;47.418;18.882;2022-11-28T10:00:54;4.20;99.90
38380;DHT22;38377;47.418;18.882;2022-11-28T10:03:28;4.20;99.90
38380;DHT22;38377;47.418;18.882;2022-11-28T10:14:08;4.10;99.90
38380;DHT22;38377;47.418;18.882;2022-11-28T10:19:26;4.10;99.90
38380;DHT22;38377;47.418;18.882;2022-11-28T10:21:56;4.10;99.90
38380;DHT22;38377;47.418;18.882;2022-11-28T10:24:43;4.10;99.90
38380;DHT22;38377;47.418;18.882;2022-11-28T10:27:12;4.00;99.90
38380;DHT22;38377;47.418;18.882;2022-11-28T10:32:19;4.00;99.90
38380;DHT22;38377;47.418;18.882;2022-11-28T10:34:57;4.10;99.90
38380;DHT22;38377;47.418;18.882;2022-11-28T10:37:26;4.10;99.90
38380;DHT22;38377;47.418;18.882;2022-11-28T10:39:54;4.20;99.90
38380;DHT22;38377;47.418;18.882;2022-11-28T10:42:34;4.20;99.90
38380;DHT22;38377;47.418;18.882;2022-11-28T10:48:06;4.20;99.90
38380;DHT22;38377;47.418;18.882;2022-11-28T10:53:43;4.20;99.90
38380;DHT22;38377;47.418;18.882;2022-11-28T10:56:24;4.20;99.90
38380;DHT22;38377;47.418;18.882;2022-11-28T10:58:57;4.20;99.90
38380;DHT22;38377;47.418;18.882;2022-11-28T11:01:28;4.20;99.90
38380;DHT22;38377;47.418;18.882;2022-11-28T11:03:55;4.30;99.90
38380;DHT22;38377;47.418;18.882;2022-11-28T11:06:24;4.30;99.90
38380;DHT22;38377;47.418;18.882;2022-11-28T11:08:50;4.20;99.90
38380;DHT22;38377;47.418;18.882;2022-11-28T11:11:29;4.20;99.90
38380;DHT22;38377;47.418;18.882;2022-11-28T11:14:05;4.20;99.90
38380;DHT22;38377;47.418;18.882;2022-11-28T11:16:52;4.20;99.90
38380;DHT22;38377;47.418;18.882;2022-11-28T11:19:27;4.20;99.90
38380;DHT22;38377;47.418;18.882;2022-11-28T11:21:59;4.30;99.90
38380;DHT22;38377;47.418;18.882;2022-11-28T11:24:25;4.30;99.90
38380;DHT22;38377;47.418;18.882;2022-11-28T11:26:51;4.20;99.90
38380;DHT22;38377;47.418;18.882;2022-11-28T11:29:31;4.20;99.90
38380;DHT22;38377;47.418;18.882;2022-11-28T11:32:01;4.20;99.90
38380;DHT22;38377;47.418;18.882;2022-11-28T11:34:50;4.10;99.90
38380;DHT22;38377;47.418;18.882;2022-11-28T11:37:37;4.20;99.90
38380;DHT22;38377;47.418;18.882;2022-11-28T11:40:27;4.30;99.90
38380;DHT22;38377;47.418;18.882;2022-11-28T11:42:58;4.30;99.90
38380;DHT22;38377;47.418;18.882;2022-11-28T11:45:30;4.30;99.90
38380;DHT22;38377;47.418;18.882;2022-11-28T11:47:57;4.30;99.90
38380;DHT22;38377;47.418;18.882;2022-11-28T11:50:26;4.20;99.90
38380;DHT22;38377;47.418;18.882;2022-11-28T11:53:09;4.30;99.90
38380;DHT22;38377;47.418;18.882;2022-11-28T11:55:46;4.20;99.90
38380;DHT22;38377;47.418;18.882;2022-11-28T11:58:21;4.30;99.90
38380;DHT22;38377;47.418;18.882;2022-11-28T12:00:48;4.30;99.90
38380;DHT22;38377;47.418;18.882;2022-11-28T12:05:59;4.30;99.90
38380;DHT22;38377;47.418;18.882;2022-11-28T12:08:37;4.40;99.90
38380;DHT22;38377;47.418;18.882;2022-11-28T12:11:20;4.50;99.90
38380;DHT22;38377;47.418;18.882;2022-11-28T12:13:49;4.50;99.90
38380;DHT22;38377;47.418;18.882;2022-11-28T12:19:57;4.50;99.90
38380;DHT22;38377;47.418;18.882;2022-11-28T12:22:47;4.50;99.90
38380;DHT22;38377;47.418;18.882;2022-11-28T12:25:26;4.50;99.90
38380;DHT22;38377;47.418;18.882;2022-11-28T12:28:11;4.40;99.90
38380;DHT22;38377;47.418;18.882;2022-11-28T12:39:16;4.40;99.90
38380;DHT22;38377;47.418;18.882;2022-11-28T12:44:24;4.40;99.90
38380;DHT22;38377;47.418;18.882;2022-11-28T12:47:19;4.50;99.90
38380;DHT22;38377;47.418;18.882;2022-11-28T12:55:26;4.60;99.90
38380;DHT22;38377;47.418;18.882;2022-11-28T12:58:03;4.60;99.90
38380;DHT22;38377;47.418;18.882;2022-11-28T13:00:44;4.60;99.90
38380;DHT22;38377;47.418;18.882;2022-11-28T13:09:32;4.40;99.90
38380;DHT22;38377;47.418;18.882;2022-11-28T13:12:47;4.40;99.90
38380;DHT22;38377;47.418;18.882;2022-11-28T13:14:54;4.40;99.90
38380;DHT22;38377;47.418;18.882;2022-11-28T13:17:44;4.50;99.90
38380;DHT22;38377;47.418;18.882;2022-11-28T13:34:15;4.50;99.90
38380;DHT22;38377;47.418;18.882;2022-11-28T13:36:59;4.50;99.90
38380;DHT22;38377;47.418;18.882;2022-11-28T13:39:51;4.50;99.90
38380;DHT22;38377;47.418;18.882;2022-11-28T13:44:55;4.50;99.90
38380;DHT22;38377;47.418;18.882;2022-11-28T13:49:49;4.50;99.90
38380;DHT22;38377;47.418;18.882;2022-11-28T13:57:24;4.60;99.90
38380;DHT22;38377;47.418;18.882;2022-11-28T14:00:01;4.60;99.90
38380;DHT22;38377;47.418;18.882;2022-11-28T14:02:38;4.60;99.90
38380;DHT22;38377;47.418;18.882;2022-11-28T14:05:27;4.60;99.90
38380;DHT22;38377;47.418;18.882;2022-11-28T14:07:54;4.60;99.90
38380;DHT22;38377;47.418;18.882;2022-11-28T14:16:01;4.60;99.90
38380;DHT22;38377;47.418;18.882;2022-11-28T14:26:57;4.60;99.90
38380;DHT22;38377;47.418;18.882;2022-11-28T14:29:29;4.50;99.90
38380;DHT22;38377;47.418;18.882;2022-11-28T14:31:56;4.40;99.90
38380;DHT22;38377;47.418;18.882;2022-11-28T14:34:48;4.40;99.90
38380;DHT22;38377;47.418;18.882;2022-11-28T14:39:52;4.30;99.90
38380;DHT22;38377;47.418;18.882;2022-11-28T14:44:58;4.30;99.90
38380;DHT22;38377;47.418;18.882;2022-11-28T14:55:23;4.00;99.90
38380;DHT22;38377;47.418;18.882;2022-11-28T14:58:00;4.00;99.90
38380;DHT22;38377;47.418;18.882;2022-11-28T15:00:53;3.90;99.90
38380;DHT22;38377;47.418;18.882;2022-11-28T15:06:19;3.80;99.90
38380;DHT22;38377;47.418;18.882;2022-11-28T15:08:48;3.80;99.90
38380;DHT22;38377;47.418;18.882;2022-11-28T15:11:37;3.70;99.90
38380;DHT22;38377;47.418;18.882;2022-11-28T15:16:47;3.70;99.90
38380;DHT22;38377;47.418;18.882;2022-11-28T15:21:49;3.60;99.90
38380;DHT22;38377;47.418;18.882;2022-11-28T15:24:28;3.60;99.90
38380;DHT22;38377;47.418;18.882;2022-11-28T15:27:17;3.50;99.90
38380;DHT22;38377;47.418;18.882;2022-11-28T15:30:15;3.50;99.90
38380;DHT22;38377;47.418;18.882;2022-11-28T15:32:41;3.40;99.90
38380;DHT22;38377;47.418;18.882;2022-11-28T15:35:13;3.40;99.90
38380;DHT22;38377;47.418;18.882;2022-11-28T15:37:48;3.40;99.90
38380;DHT22;38377;47.418;18.882;2022-11-28T15:40:31;3.30;99.90
38380;DHT22;38377;47.418;18.882;2022-11-28T15:42:58;3.30;99.90
38380;DHT22;38377;47.418;18.882;2022-11-28T15:45:31;3.30;99.90
38380;DHT22;38377;47.418;18.882;2022-11-28T15:47:57;3.20;99.90
38380;DHT22;38377;47.418;18.882;2022-11-28T15:50:33;3.20;99.90
38380;DHT22;38377;47.418;18.882;2022-11-28T15:53:13;3.20;99.90
38380;DHT22;38377;47.418;18.882;2022-11-28T15:55:39;3.30;99.90
38380;DHT22;38377;47.418;18.882;2022-11-28T15:58:09;3.30;99.90
38380;DHT22;38377;47.418;18.882;2022-11-28T16:00:39;3.20;99.90
38380;DHT22;38377;47.418;18.882;2022-11-28T16:03:08;3.30;99.90
38380;DHT22;38377;47.418;18.882;2022-11-28T16:05:38;3.20;99.90
38380;DHT22;38377;47.418;18.882;2022-11-28T16:08:04;3.20;99.90
38380;DHT22;38377;47.418;18.882;2022-11-28T16:10:35;3.30;99.90
38380;DHT22;38377;47.418;18.882;2022-11-28T16:13:10;3.20;99.90
38380;DHT22;38377;47.418;18.882;2022-11-28T16:15:37;3.20;99.90
38380;DHT22;38377;47.418;18.882;2022-11-28T16:18:03;3.20;99.90
38380;DHT22;38377;47.418;18.882;2022-11-28T16:20:36;3.10;99.90
38380;DHT22;38377;47.418;18.882;2022-11-28T16:23:16;3.10;99.90
38380;DHT22;38377;47.418;18.882;2022-11-28T16:25:42;3.10;99.90
38380;DHT22;38377;47.418;18.882;2022-11-28T16:28:34;3.10;99.90
38380;DHT22;38377;47.418;18.882;2022-11-28T16:31:01;3.10;99.90
38380;DHT22;38377;47.418;18.882;2022-11-28T16:33:43;3.10;99.90
38380;DHT22;38377;47.418;18.882;2022-11-28T16:36:19;3.20;99.90
38380;DHT22;38377;47.418;18.882;2022-11-28T16:38:47;3.10;99.90
38380;DHT22;38377;47.418;18.882;2022-11-28T16:41:24;3.20;99.90
38380;DHT22;38377;47.418;18.882;2022-11-28T16:44:13;3.10;99.90
38380;DHT22;38377;47.418;18.882;2022-11-28T16:46:54;3.10;99.90
38380;DHT22;38377;47.418;18.882;2022-11-28T16:49:41;3.10;99.90
38380;DHT22;38377;47.418;18.882;2022-11-28T16:54:47;3.00;99.90
38380;DHT22;38377;47.418;18.882;2022-11-28T16:57:13;3.00;99.90
38380;DHT22;38377;47.418;18.882;2022-11-28T16:59:40;3.00;99.90
38380;DHT22;38377;47.418;18.882;2022-11-28T17:02:14;2.90;99.90
38380;DHT22;38377;47.418;18.882;2022-11-28T17:04:41;2.80;99.90
38380;DHT22;38377;47.418;18.882;2022-11-28T17:07:13;2.80;99.90
38380;DHT22;38377;47.418;18.882;2022-11-28T17:09:40;2.80;99.90
38380;DHT22;38377;47.418;18.882;2022-11-28T17:12:28;2.80;99.90
38380;DHT22;38377;47.418;18.882;2022-11-28T17:14:54;2.80;99.90
38380;DHT22;38377;47.418;18.882;2022-11-28T17:17:21;2.70;99.90
38380;DHT22;38377;47.418;18.882;2022-11-28T17:19:50;2.60;99.90
38380;DHT22;38377;47.418;18.882;2022-11-28T17:22:21;2.60;99.90
38380;DHT22;38377;47.418;18.882;2022-11-28T17:24:48;2.60;99.90
38380;DHT22;38377;47.418;18.882;2022-11-28T17:27:15;2.50;99.90
38380;DHT22;38377;47.418;18.882;2022-11-28T17:29:41;2.50;99.90
38380;DHT22;38377;47.418;18.882;2022-11-28T17:32:11;2.40;99.90
38380;DHT22;38377;47.418;18.882;2022-11-28T17:34:37;2.40;99.90
38380;DHT22;38377;47.418;18.882;2022-11-28T17:37:04;2.40;99.90
38380;DHT22;38377;47.418;18.882;2022-11-28T17:39:30;2.30;99.90
38380;DHT22;38377;47.418;18.882;2022-11-28T17:41:56;2.20;99.90
38380;DHT22;38377;47.418;18.882;2022-11-28T17:44:25;2.20;99.90
38380;DHT22;38377;47.418;18.882;2022-11-28T17:46:53;2.20;99.90
38380;DHT22;38377;47.418;18.882;2022-11-28T17:49:20;2.20;99.90
38380;DHT22;38377;47.418;18.882;2022-11-28T17:51:46;2.20;99.90
38380;DHT22;38377;47.418;18.882;2022-11-28T17:54:13;2.20;99.90
38380;DHT22;38377;47.418;18.882;2022-11-28T17:56:49;2.20;99.90
38380;DHT22;38377;47.418;18.882;2022-11-28T17:59:18;2.20;99.90
38380;DHT22;38377;47.418;18.882;2022-11-28T18:01:44;2.30;99.90
38380;DHT22;38377;47.418;18.882;2022-11-28T18:04:10;2.20;99.90
38380;DHT22;38377;47.418;18.882;2022-11-28T18:06:36;2.20;99.90
38380;DHT22;38377;47.418;18.882;2022-11-28T18:09:04;2.20;99.90
38380;DHT22;38377;47.418;18.882;2022-11-28T18:11:30;2.20;99.90
38380;DHT22;38377;47.418;18.882;2022-11-28T18:13:57;2.20;99.90
38380;DHT22;38377;47.418;18.882;2022-11-28T18:16:23;2.20;99.90
38380;DHT22;38377;47.418;18.882;2022-11-28T18:18:54;2.20;99.90
38380;DHT22;38377;47.418;18.882;2022-11-28T18:21:20;2.20;99.90
38380;DHT22;38377;47.418;18.882;2022-11-28T18:23:47;2.20;99.90
38380;DHT22;38377;47.418;18.882;2022-11-28T18:26:21;2.20;99.90
38380;DHT22;38377;47.418;18.882;2022-11-28T18:28:48;2.20;99.90
38380;DHT22;38377;47.418;18.882;2022-11-28T18:31:25;2.20;99.90
38380;DHT22;38377;47.418;18.882;2022-11-28T18:33:52;2.20;99.90
38380;DHT22;38377;47.418;18.882;2022-11-28T18:36:21;2.10;99.90
38380;DHT22;38377;47.418;18.882;2022-11-28T18:38:47;2.10;99.90
38380;DHT22;38377;47.418;18.882;2022-11-28T18:41:15;2.10;99.90
38380;DHT22;38377;47.418;18.882;2022-11-28T18:43:41;2.00;99.90
38380;DHT22;38377;47.418;18.882;2022-11-28T18:46:14;2.00;99.90
38380;DHT22;38377;47.418;18.882;2022-11-28T18:48:43;2.00;99.90